createdAt,value
2022-12-18T00:00:54.933Z,38.35
2022-12-18T00:03:22.012Z,30.48
2022-12-18T00:05:53.540Z,35.50
2022-12-18T00:08:21.184Z,30.15
2022-12-18T00:10:48.066Z,39.03
2022-12-18T00:13:14.872Z,34.13
2022-12-18T00:15:42.218Z,31.67
2022-12-18T00:18:09.294Z,44.47
2022-12-18T00:20:41.067Z,34.28
2022-12-18T00:23:11.438Z,32.15
2022-12-18T00:25:38.452Z,33.53
2022-12-18T00:28:06.190Z,29.83
2022-12-18T00:30:35.733Z,36.22
2022-12-18T00:33:03.493Z,32.83
2022-12-18T00:35:32.270Z,26.00
2022-12-18T00:38:07.315Z,26.15
2022-12-18T00:40:45.250Z,37.03
2022-12-18T00:43:16.723Z,31.17
2022-12-18T00:45:46.252Z,34.30
2022-12-18T00:48:27.055Z,34.17
2022-12-18T00:50:54.441Z,42.00
2022-12-18T00:55:52.432Z,15.07
2022-12-18T01:01:05.245Z,24.90
2022-12-18T01:03:35.405Z,18.92
2022-12-18T01:06:15.525Z,23.90
2022-12-18T01:08:43.414Z,29.90
2022-12-18T01:11:18.572Z,28.48
2022-12-18T01:13:49.920Z,39.65
2022-12-18T01:16:18.241Z,16.48
2022-12-18T01:18:45.263Z,15.27
2022-12-18T01:21:16.209Z,13.43
2022-12-18T01:23:46.599Z,13.18
2022-12-18T01:26:15.834Z,19.80
2022-12-18T01:28:44.803Z,22.58
2022-12-18T01:31:18.503Z,24.95
2022-12-18T01:33:50.709Z,27.45
2022-12-18T01:36:20.443Z,25.75
2022-12-18T01:38:47.918Z,11.93
2022-12-18T01:41:20.352Z,18.00
2022-12-18T01:43:54.089Z,19.70
2022-12-18T01:46:26.412Z,26.08
2022-12-18T01:49:03.435Z,21.27
2022-12-18T01:51:35.947Z,18.05
2022-12-18T01:54:12.926Z,17.42
2022-12-18T01:56:48.847Z,27.38
2022-12-18T01:59:16.571Z,21.33
2022-12-18T02:01:45.709Z,26.95
2022-12-18T02:04:29.435Z,21.48
2022-12-18T02:07:12.936Z,24.55
2022-12-18T02:09:51.696Z,28.13
2022-12-18T02:12:26.224Z,22.83
2022-12-18T02:15:31.210Z,23.40
2022-12-18T02:18:17.490Z,16.73
2022-12-18T02:21:08.385Z,17.33
2022-12-18T02:23:59.600Z,22.23
2022-12-18T02:26:55.058Z,23.63
2022-12-18T02:35:53.940Z,24.50
2022-12-18T02:38:48.649Z,24.33
2022-12-18T02:41:19.122Z,29.05
2022-12-18T02:43:58.339Z,28.17
2022-12-18T02:46:54.623Z,16.05
2022-12-18T02:50:08.308Z,20.50
2022-12-18T02:52:50.462Z,10.63
2022-12-18T02:55:33.344Z,17.98
2022-12-18T02:58:57.670Z,29.92
2022-12-18T03:01:59.992Z,13.23
2022-12-18T03:08:14.064Z,16.85
2022-12-18T03:10:55.842Z,14.45
2022-12-18T03:13:35.750Z,26.35
2022-12-18T03:16:09.713Z,47.45
2022-12-18T03:18:43.488Z,35.40
2022-12-18T03:21:15.870Z,43.67
2022-12-18T03:24:40.139Z,39.50
2022-12-18T03:30:44.856Z,31.67
2022-12-18T03:33:25.915Z,36.92
2022-12-18T03:36:00.832Z,26.85
2022-12-18T03:38:47.662Z,31.25
2022-12-18T03:41:51.347Z,43.63
2022-12-18T03:44:46.324Z,44.47
2022-12-18T03:47:50.390Z,40.42
2022-12-18T03:50:46.312Z,26.55
2022-12-18T03:53:46.192Z,41.15
2022-12-18T03:56:31.857Z,25.45
2022-12-18T03:59:06.803Z,27.98
2022-12-18T04:01:51.456Z,19.85
2022-12-18T04:04:24.929Z,31.95
2022-12-18T04:07:06.046Z,35.53
2022-12-18T04:09:37.451Z,14.45
2022-12-18T04:12:10.637Z,19.70
2022-12-18T04:15:14.469Z,32.35
2022-12-18T04:17:50.221Z,38.25
2022-12-18T04:20:47.792Z,36.78
2022-12-18T04:25:49.320Z,15.88
2022-12-18T04:28:32.105Z,30.50
2022-12-18T04:33:47.266Z,17.08
2022-12-18T04:36:16.230Z,44.95
2022-12-18T04:38:56.947Z,44.40
2022-12-18T04:41:27.700Z,55.00
2022-12-18T04:44:03.861Z,36.15
2022-12-18T04:46:30.763Z,48.15
2022-12-18T04:48:57.949Z,41.67
2022-12-18T04:54:09.369Z,46.78
2022-12-18T04:56:45.745Z,34.25
2022-12-18T04:59:24.189Z,51.28
2022-12-18T05:01:58.894Z,51.10
2022-12-18T05:08:06.226Z,35.40
2022-12-18T05:10:41.594Z,26.40
2022-12-18T05:13:20.640Z,30.67
2022-12-18T05:16:01.137Z,39.50
2022-12-18T05:18:31.804Z,37.15
2022-12-18T05:21:04.264Z,38.38
2022-12-18T05:23:44.438Z,26.77
2022-12-18T05:26:27.083Z,22.73
2022-12-18T05:29:04.284Z,31.35
2022-12-18T05:31:39.699Z,27.20
2022-12-18T05:34:08.006Z,28.58
2022-12-18T05:36:36.890Z,29.27
2022-12-18T05:39:09.890Z,30.27
2022-12-18T05:42:20.029Z,28.02
2022-12-18T05:44:48.176Z,21.20
2022-12-18T05:50:01.031Z,8.75
2022-12-18T06:00:50.863Z,11.18
2022-12-18T06:04:16.511Z,21.45
2022-12-18T06:10:07.708Z,32.97
2022-12-18T06:15:30.316Z,23.70
2022-12-18T06:18:50.276Z,28.83
2022-12-18T06:21:18.859Z,24.50
2022-12-18T06:23:50.921Z,37.38
2022-12-18T06:30:03.453Z,23.55
2022-12-18T06:36:11.872Z,11.90
2022-12-18T06:39:12.379Z,20.38
2022-12-18T06:44:31.593Z,41.63
2022-12-18T06:47:20.316Z,43.63
2022-12-18T06:54:12.703Z,28.08
2022-12-18T06:57:12.211Z,29.33
2022-12-18T07:50:44.016Z,37.38
2022-12-18T07:58:32.479Z,25.00
2022-12-18T08:11:34.068Z,21.23
2022-12-18T08:14:12.146Z,21.35
2022-12-18T08:27:30.088Z,24.88
2022-12-18T08:37:46.664Z,20.48
2022-12-18T08:46:11.149Z,21.23
2022-12-18T08:48:52.573Z,27.90
2022-12-18T09:04:34.109Z,25.25
2022-12-18T09:08:10.107Z,12.80
2022-12-18T09:21:19.577Z,24.20
2022-12-18T09:24:32.186Z,24.13
2022-12-18T09:27:19.362Z,29.48
2022-12-18T09:30:24.543Z,18.90
2022-12-18T09:33:50.388Z,16.00
2022-12-18T09:36:34.526Z,20.67
2022-12-18T09:39:07.814Z,20.70
2022-12-18T09:42:34.097Z,21.05
2022-12-18T09:46:14.175Z,18.73
2022-12-18T09:49:07.256Z,17.02
2022-12-18T10:11:19.079Z,16.52
2022-12-18T10:15:59.964Z,21.88
2022-12-18T10:22:12.934Z,20.73
2022-12-18T10:25:29.326Z,26.00
2022-12-18T10:28:03.340Z,20.58
2022-12-18T10:30:38.136Z,18.58
2022-12-18T10:33:37.613Z,19.58
2022-12-18T10:50:46.758Z,27.30
2022-12-18T10:52:27.521Z,24.42
2022-12-18T10:57:54.099Z,24.27
2022-12-18T11:00:41.990Z,26.08
2022-12-18T11:03:42.040Z,18.55
2022-12-18T11:10:25.523Z,18.27
2022-12-18T11:21:22.010Z,18.23
2022-12-18T11:28:44.003Z,19.48
2022-12-18T11:39:58.684Z,22.50
2022-12-18T11:43:24.724Z,24.73
2022-12-18T11:50:18.716Z,17.95
2022-12-18T11:53:20.613Z,23.20
2022-12-18T11:55:59.687Z,20.88
2022-12-18T11:59:39.879Z,20.55
2022-12-18T12:06:12.023Z,23.63
2022-12-18T12:09:45.896Z,27.17
2022-12-18T12:13:54.281Z,29.25
2022-12-18T12:25:10.293Z,22.90
2022-12-18T12:28:50.650Z,33.42
2022-12-18T13:05:29.984Z,14.65
2022-12-18T13:58:20.357Z,29.13
2022-12-18T14:22:26.259Z,24.10
2022-12-18T14:25:49.714Z,33.85
2022-12-18T14:32:11.927Z,25.10
2022-12-18T14:39:20.940Z,26.40
2022-12-18T14:41:50.126Z,23.10
2022-12-18T14:44:17.821Z,28.67
2022-12-18T14:46:47.187Z,28.80
2022-12-18T14:49:36.087Z,27.35
2022-12-18T14:52:27.307Z,31.52
2022-12-18T14:54:54.272Z,25.48
2022-12-18T15:00:25.122Z,25.20
2022-12-18T15:02:55.885Z,30.35
2022-12-18T15:05:28.657Z,24.58
2022-12-18T15:07:58.885Z,30.00
2022-12-18T15:10:32.420Z,22.45
2022-12-18T15:13:03.907Z,20.85
2022-12-18T15:15:40.691Z,24.33
2022-12-18T15:18:11.477Z,24.25
2022-12-18T15:21:00.520Z,29.42
2022-12-18T15:23:33.186Z,33.33
2022-12-18T15:26:11.826Z,28.48
2022-12-18T15:28:50.996Z,27.35
2022-12-18T15:31:33.151Z,37.22
2022-12-18T15:34:13.343Z,21.35
2022-12-18T15:36:40.561Z,25.15
2022-12-18T15:42:13.616Z,20.77
2022-12-18T15:48:34.793Z,27.38
2022-12-18T15:51:16.455Z,27.10
2022-12-18T15:53:55.509Z,33.33
2022-12-18T15:56:42.173Z,33.80
2022-12-18T16:03:46.030Z,31.15
2022-12-18T16:06:22.448Z,34.38
2022-12-18T16:08:50.491Z,39.25
2022-12-18T16:11:41.666Z,43.92
2022-12-18T16:14:29.860Z,30.90
2022-12-18T16:16:59.936Z,40.42
2022-12-18T16:19:28.012Z,35.22
2022-12-18T16:21:57.085Z,34.63
2022-12-18T16:24:30.588Z,46.00
2022-12-18T16:30:13.134Z,42.30
2022-12-18T16:32:40.149Z,41.08
2022-12-18T16:35:07.409Z,41.45
2022-12-18T16:37:34.464Z,40.72
2022-12-18T16:40:01.182Z,37.83
2022-12-18T16:42:28.987Z,35.85
2022-12-18T16:44:55.772Z,43.85
2022-12-18T16:47:22.456Z,41.92
2022-12-18T16:49:53.068Z,47.45
2022-12-18T16:52:21.961Z,56.08
2022-12-18T16:54:48.698Z,36.97
2022-12-18T16:57:20.479Z,37.78
2022-12-18T16:59:48.869Z,38.45
2022-12-18T17:02:23.894Z,32.72
2022-12-18T17:04:57.571Z,33.17
2022-12-18T17:07:25.133Z,44.30
2022-12-18T17:09:54.158Z,32.90
2022-12-18T17:12:21.785Z,38.80
2022-12-18T17:14:48.647Z,39.20
2022-12-18T17:17:24.023Z,43.95
2022-12-18T17:19:52.991Z,32.45
2022-12-18T17:22:21.474Z,35.63
2022-12-18T17:24:48.158Z,34.90
2022-12-18T17:27:20.603Z,31.30
2022-12-18T17:29:48.826Z,35.25
2022-12-18T17:32:27.444Z,38.30
2022-12-18T17:35:21.558Z,24.00
2022-12-18T17:37:56.938Z,37.20
2022-12-18T17:40:24.232Z,35.03
2022-12-18T17:45:40.207Z,31.92
2022-12-18T17:48:25.285Z,33.47
2022-12-18T17:50:53.236Z,30.13
2022-12-18T17:53:19.996Z,33.28
2022-12-18T17:55:59.474Z,64.15
2022-12-18T17:58:26.436Z,68.63
2022-12-18T18:00:53.388Z,57.30
2022-12-18T18:03:20.340Z,76.22
2022-12-18T18:05:47.502Z,35.63
2022-12-18T18:14:53.168Z,29.55
2022-12-18T18:17:19.955Z,41.60
2022-12-18T18:19:49.697Z,35.13
2022-12-18T18:22:27.124Z,43.55
2022-12-18T18:27:48.547Z,61.05
2022-12-18T18:30:15.595Z,48.22
2022-12-18T18:32:42.246Z,63.47
2022-12-18T18:35:37.569Z,50.50
2022-12-18T18:38:04.652Z,48.95
2022-12-18T18:40:31.376Z,54.97
2022-12-18T18:42:58.048Z,54.67
2022-12-18T18:45:26.186Z,60.28
2022-12-18T18:47:52.923Z,47.38
2022-12-18T18:50:22.622Z,60.45
2022-12-18T18:52:49.941Z,57.72
2022-12-18T18:57:52.820Z,46.97
2022-12-18T19:00:19.761Z,47.25
2022-12-18T19:02:46.709Z,60.85
2022-12-18T19:05:22.227Z,68.32
2022-12-18T19:07:49.390Z,49.85
2022-12-18T19:10:16.321Z,60.75
2022-12-18T19:13:01.794Z,61.35
2022-12-18T19:15:33.428Z,59.72
2022-12-18T19:18:02.568Z,42.35
2022-12-18T19:20:31.958Z,43.45
2022-12-18T19:22:58.710Z,66.80
2022-12-18T19:25:40.393Z,61.88
2022-12-18T19:28:22.007Z,48.13
2022-12-18T19:30:59.086Z,48.05
2022-12-18T19:33:44.412Z,56.45
2022-12-18T19:36:21.547Z,59.10
2022-12-18T19:38:49.901Z,61.17
2022-12-18T19:41:18.925Z,64.47
2022-12-18T19:43:51.655Z,65.47
2022-12-18T19:46:21.931Z,67.43
2022-12-18T19:48:50.220Z,71.80
2022-12-18T19:51:27.866Z,73.43
2022-12-18T19:53:58.839Z,75.63
2022-12-18T19:56:29.365Z,60.95
2022-12-18T19:58:57.775Z,64.85
2022-12-18T20:01:27.208Z,68.00
2022-12-18T20:03:56.012Z,58.25
2022-12-18T20:10:32.316Z,55.55
2022-12-18T20:12:58.986Z,52.42
2022-12-18T20:15:45.291Z,52.63
2022-12-18T20:18:17.492Z,47.08
2022-12-18T20:21:13.597Z,54.75
2022-12-18T20:23:41.017Z,57.08
2022-12-18T20:28:36.070Z,50.35
2022-12-18T20:31:46.835Z,60.53
2022-12-18T20:35:22.162Z,41.50
2022-12-18T20:37:50.877Z,53.22
2022-12-18T20:41:47.830Z,42.90
2022-12-18T20:47:07.711Z,32.05
2022-12-18T20:49:39.584Z,26.60
2022-12-18T20:52:11.103Z,23.08
2022-12-18T20:55:08.349Z,31.13
2022-12-18T20:58:28.801Z,30.25
2022-12-18T21:01:19.133Z,26.98
2022-12-18T21:03:52.681Z,22.40
2022-12-18T21:06:25.948Z,12.70
2022-12-18T21:08:56.064Z,19.95
2022-12-18T21:11:50.246Z,25.92
2022-12-18T21:14:28.259Z,27.58
2022-12-18T21:16:59.161Z,32.30
2022-12-18T21:19:31.695Z,36.90
2022-12-18T21:21:59.005Z,34.17
2022-12-18T21:26:56.225Z,25.70
2022-12-18T21:29:25.466Z,30.95
2022-12-18T21:31:56.137Z,44.80
2022-12-18T21:34:29.400Z,45.00
2022-12-18T21:36:58.230Z,39.50
2022-12-18T21:39:26.339Z,33.65
2022-12-18T21:42:19.206Z,30.15
2022-12-18T21:44:49.057Z,33.88
2022-12-18T21:47:22.668Z,40.83
2022-12-18T21:49:53.679Z,32.03
2022-12-18T21:52:25.689Z,39.17
2022-12-18T21:55:09.570Z,31.75
2022-12-18T21:57:41.817Z,34.22
2022-12-18T22:00:20.982Z,39.67
2022-12-18T22:03:13.347Z,33.20
2022-12-18T22:05:35.569Z,33.53
2022-12-18T22:08:08.857Z,42.75
2022-12-18T22:10:39.968Z,40.53
2022-12-18T22:13:07.620Z,31.20
2022-12-18T22:15:34.680Z,32.38
2022-12-18T22:18:04.827Z,37.28
2022-12-18T22:20:31.721Z,55.65
2022-12-18T22:23:02.604Z,32.40
2022-12-18T22:25:35.234Z,32.20
2022-12-18T22:28:24.521Z,30.13
2022-12-18T22:30:52.696Z,34.28
2022-12-18T22:33:26.815Z,34.65
2022-12-18T22:35:53.637Z,39.65
2022-12-18T22:38:20.386Z,38.53
2022-12-18T22:40:47.179Z,43.83
2022-12-18T22:43:16.670Z,37.70
2022-12-18T22:45:47.377Z,33.65
2022-12-18T22:48:15.279Z,35.80
2022-12-18T22:50:53.451Z,32.83
2022-12-18T22:53:26.151Z,30.40
2022-12-18T22:56:00.628Z,36.40
2022-12-18T22:58:27.544Z,48.20
2022-12-18T23:00:54.604Z,40.35
2022-12-18T23:03:21.380Z,45.05
2022-12-18T23:05:48.204Z,40.67
2022-12-18T23:08:26.851Z,34.67
2022-12-18T23:10:55.989Z,32.20
2022-12-18T23:13:23.364Z,35.10
2022-12-18T23:15:50.228Z,40.38
2022-12-18T23:18:25.939Z,38.22
2022-12-18T23:20:52.919Z,41.72
2022-12-18T23:25:46.670Z,33.03
2022-12-18T23:28:13.844Z,30.15
2022-12-18T23:30:40.864Z,39.53
2022-12-18T23:33:08.075Z,39.85
2022-12-18T23:35:38.894Z,32.65
2022-12-18T23:38:06.441Z,38.25
2022-12-18T23:40:33.392Z,33.38
2022-12-18T23:43:00.533Z,27.48
2022-12-18T23:45:27.606Z,36.65
2022-12-18T23:47:54.402Z,35.92
2022-12-18T23:50:23.789Z,38.45
2022-12-18T23:52:57.280Z,31.05
2022-12-18T23:55:30.705Z,35.83
2022-12-18T23:57:57.516Z,38.67
